createdAt,value
2022-10-11T00:00:40.904Z,12.37
2022-10-11T00:01:40.833Z,12.40
2022-10-11T00:02:40.710Z,12.48
2022-10-11T00:03:40.654Z,12.37
2022-10-11T00:04:40.651Z,12.33
2022-10-11T00:05:40.527Z,12.30
2022-10-11T00:06:40.466Z,12.25
2022-10-11T00:07:40.418Z,12.22
2022-10-11T00:08:40.335Z,12.16
2022-10-11T00:09:40.265Z,12.16
2022-10-11T00:10:40.218Z,12.16
2022-10-11T00:11:40.163Z,12.13
2022-10-11T00:12:40.119Z,12.16
2022-10-11T00:13:40.010Z,12.13
2022-10-11T00:14:40.004Z,12.08
2022-10-11T00:15:39.886Z,12.11
2022-10-11T00:16:39.820Z,12.11
2022-10-11T00:17:39.759Z,12.03
2022-10-11T00:18:39.691Z,12.05
2022-10-11T00:19:39.626Z,12.05
2022-10-11T00:20:39.603Z,11.97
2022-10-11T00:21:39.497Z,12.01
2022-10-11T00:22:39.435Z,11.93
2022-10-11T00:23:39.389Z,11.93
2022-10-11T00:24:39.312Z,11.90
2022-10-11T00:25:39.249Z,11.84
2022-10-11T00:26:43.233Z,11.78
2022-10-11T00:27:39.128Z,11.78
2022-10-11T00:28:39.155Z,11.78
2022-10-11T00:29:38.984Z,11.90
2022-10-11T00:30:38.965Z,11.82
2022-10-11T00:31:38.858Z,11.82
2022-10-11T00:32:38.795Z,11.81
2022-10-11T00:33:38.743Z,11.77
2022-10-11T00:34:38.669Z,11.75
2022-10-11T00:35:38.603Z,11.74
2022-10-11T00:36:38.568Z,11.74
2022-10-11T00:37:38.478Z,11.72
2022-10-11T00:38:38.535Z,11.66
2022-10-11T00:39:38.346Z,11.66
2022-10-11T00:40:38.285Z,11.70
2022-10-11T00:41:38.237Z,11.59
2022-10-11T00:42:38.160Z,11.66
2022-10-11T00:43:38.090Z,11.70
2022-10-11T00:44:38.030Z,11.70
2022-10-11T00:45:37.962Z,11.59
2022-10-11T00:46:37.900Z,11.44
2022-10-11T00:47:37.836Z,11.42
2022-10-11T00:48:37.772Z,11.41
2022-10-11T00:49:37.706Z,11.41
2022-10-11T00:50:37.659Z,11.36
2022-10-11T00:51:37.599Z,11.41
2022-10-11T00:52:37.522Z,11.28
2022-10-11T00:53:37.465Z,11.24
2022-10-11T00:54:37.387Z,11.21
2022-10-11T00:55:37.319Z,11.35
2022-10-11T00:56:37.259Z,11.27
2022-10-11T00:57:37.192Z,11.26
2022-10-11T00:58:37.132Z,11.30
2022-10-11T00:59:37.066Z,11.16
2022-10-11T01:00:37.020Z,11.13
2022-10-11T01:01:37.094Z,11.11
2022-10-11T01:02:36.876Z,10.99
2022-10-11T01:03:36.808Z,11.03
2022-10-11T01:04:36.743Z,10.93
2022-10-11T01:05:36.677Z,10.94
2022-10-11T01:06:36.616Z,10.99
2022-10-11T01:07:36.549Z,10.95
2022-10-11T01:08:36.486Z,10.99
2022-10-11T01:09:36.421Z,10.98
2022-10-11T01:10:36.357Z,10.98
2022-10-11T01:11:36.296Z,10.95
2022-10-11T01:12:36.236Z,10.93
2022-10-11T01:13:36.216Z,10.91
2022-10-11T01:14:36.101Z,10.95
2022-10-11T01:15:36.042Z,10.87
2022-10-11T01:16:35.973Z,10.83
2022-10-11T01:17:35.907Z,10.91
2022-10-11T01:18:35.849Z,10.87
2022-10-11T01:19:35.783Z,10.81
2022-10-11T01:20:35.717Z,10.86
2022-10-11T01:21:35.660Z,10.88
2022-10-11T01:22:35.602Z,10.88
2022-10-11T01:23:35.533Z,10.78
2022-10-11T01:24:35.458Z,10.81
2022-10-11T01:25:35.392Z,10.84
2022-10-11T01:26:35.329Z,10.83
2022-10-11T01:27:35.265Z,10.84
2022-10-11T01:28:35.320Z,10.86
2022-10-11T01:29:35.146Z,10.90
2022-10-11T01:30:35.076Z,10.78
2022-10-11T01:31:35.013Z,10.84
2022-10-11T01:32:34.946Z,10.76
2022-10-11T01:33:34.900Z,10.70
2022-10-11T01:34:34.817Z,10.65
2022-10-11T01:35:34.770Z,10.68
2022-10-11T01:36:34.686Z,10.66
2022-10-11T01:37:34.618Z,10.73
2022-10-11T01:38:34.554Z,10.72
2022-10-11T01:39:34.492Z,10.73
2022-10-11T01:40:34.439Z,10.69
2022-10-11T01:41:34.360Z,10.66
2022-10-11T01:42:34.298Z,10.70
2022-10-11T01:43:34.238Z,10.63
2022-10-11T01:44:34.174Z,10.63
2022-10-11T01:45:34.102Z,10.68
2022-10-11T01:46:34.041Z,10.69
2022-10-11T01:47:33.985Z,10.70
2022-10-11T01:48:33.909Z,10.63
2022-10-11T01:49:33.843Z,10.57
2022-10-11T01:50:33.781Z,10.60
2022-10-11T01:51:33.715Z,10.58
2022-10-11T01:52:33.652Z,10.63
2022-10-11T01:53:33.594Z,10.66
2022-10-11T01:54:56.470Z,10.52
2022-10-11T01:55:33.459Z,10.51
2022-10-11T01:56:33.393Z,10.43
2022-10-11T01:57:33.327Z,10.44
2022-10-11T01:58:33.268Z,10.46
2022-10-11T01:59:33.205Z,10.49
2022-10-11T02:00:33.135Z,10.46
2022-10-11T02:01:33.154Z,10.36
2022-10-11T02:02:33.005Z,10.36
2022-10-11T02:03:32.940Z,10.34
2022-10-11T02:04:32.877Z,10.35
2022-10-11T02:05:32.844Z,10.31
2022-10-11T02:06:32.742Z,10.29
2022-10-11T02:07:32.682Z,10.26
2022-10-11T02:08:32.615Z,10.25
2022-10-11T02:09:32.551Z,10.20
2022-10-11T02:10:32.484Z,10.11
2022-10-11T02:11:32.422Z,10.06
2022-10-11T02:12:32.356Z,9.98
2022-10-11T02:13:32.294Z,10.02
2022-10-11T02:14:32.225Z,10.01
2022-10-11T02:15:32.162Z,9.99
2022-10-11T02:16:32.099Z,9.99
2022-10-11T02:17:32.040Z,9.98
2022-10-11T02:18:31.967Z,10.04
2022-10-11T02:19:31.903Z,10.04
2022-10-11T02:20:31.839Z,10.07
2022-10-11T02:21:31.775Z,9.91
2022-10-11T02:22:31.706Z,9.98
2022-10-11T02:23:31.647Z,9.99
2022-10-11T02:24:31.578Z,9.92
2022-10-11T02:25:31.518Z,9.98
2022-10-11T02:26:31.449Z,10.01
2022-10-11T02:27:31.385Z,10.04
2022-10-11T02:28:31.372Z,9.89
2022-10-11T02:29:31.259Z,9.98
2022-10-11T02:30:31.201Z,10.04
2022-10-11T02:31:31.126Z,10.01
2022-10-11T02:32:31.067Z,10.01
2022-10-11T02:33:31.011Z,10.02
2022-10-11T02:34:30.935Z,9.95
2022-10-11T02:35:30.868Z,10.07
2022-10-11T02:36:30.810Z,10.01
2022-10-11T02:37:30.739Z,10.01
2022-10-11T02:38:30.669Z,9.95
2022-10-11T02:39:30.612Z,9.91
2022-10-11T02:40:30.546Z,9.92
2022-10-11T02:41:30.486Z,9.91
2022-10-11T02:42:30.427Z,9.91
2022-10-11T02:43:30.352Z,9.93
2022-10-11T02:44:30.281Z,9.98
2022-10-11T02:45:30.221Z,9.92
2022-10-11T02:46:30.158Z,9.88
2022-10-11T02:47:30.087Z,9.89
2022-10-11T02:48:30.025Z,9.80
2022-10-11T02:49:29.959Z,9.78
2022-10-11T02:50:29.894Z,9.80
2022-10-11T02:51:29.831Z,9.88
2022-10-11T02:52:29.761Z,9.83
2022-10-11T02:53:29.698Z,9.89
2022-10-11T02:54:29.631Z,9.71
2022-10-11T02:55:29.574Z,9.68
2022-10-11T02:56:29.504Z,9.73
2022-10-11T02:57:29.437Z,9.63
2022-10-11T02:58:29.460Z,9.59
2022-10-11T02:59:29.310Z,9.58
2022-10-11T03:00:29.241Z,9.63
2022-10-11T03:01:29.282Z,9.71
2022-10-11T03:02:29.112Z,9.70
2022-10-11T03:03:29.047Z,9.68
2022-10-11T03:04:28.986Z,9.71
2022-10-11T03:05:28.961Z,9.71
2022-10-11T03:06:28.875Z,9.71
2022-10-11T03:07:28.827Z,9.85
2022-10-11T03:08:28.723Z,9.77
2022-10-11T03:09:28.658Z,9.71
2022-10-11T03:10:28.591Z,9.62
2022-10-11T03:11:28.528Z,9.68
2022-10-11T03:12:28.462Z,9.70
2022-10-11T03:13:28.406Z,9.71
2022-10-11T03:14:28.330Z,9.68
2022-10-11T03:15:28.278Z,9.70
2022-10-11T03:16:28.202Z,9.74
2022-10-11T03:17:36.898Z,9.68
2022-10-11T03:18:28.071Z,9.70
2022-10-11T03:19:28.009Z,9.65
2022-10-11T03:20:27.943Z,9.53
2022-10-11T03:21:27.877Z,9.60
2022-10-11T03:22:27.810Z,9.55
2022-10-11T03:23:27.806Z,9.60
2022-10-11T03:24:27.687Z,9.56
2022-10-11T03:25:27.614Z,9.50
2022-10-11T03:26:27.549Z,9.45
2022-10-11T03:27:27.526Z,9.40
2022-10-11T03:28:27.458Z,9.42
2022-10-11T03:29:27.360Z,9.41
2022-10-11T03:30:27.289Z,9.48
2022-10-11T03:31:27.234Z,9.42
2022-10-11T03:32:27.158Z,9.34
2022-10-11T03:33:27.096Z,9.38
2022-10-11T03:34:27.029Z,9.37
2022-10-11T03:35:26.970Z,9.42
2022-10-11T03:36:26.909Z,9.40
2022-10-11T03:37:26.831Z,9.42
2022-10-11T03:38:26.769Z,9.52
2022-10-11T03:39:26.703Z,9.52
2022-10-11T03:40:26.637Z,9.56
2022-10-11T03:41:26.573Z,9.56
2022-10-11T03:42:26.507Z,9.56
2022-10-11T03:43:26.488Z,9.67
2022-10-11T03:44:26.379Z,9.63
2022-10-11T03:45:26.338Z,9.63
2022-10-11T03:46:26.244Z,9.56
2022-10-11T03:47:26.184Z,9.59
2022-10-11T03:48:26.116Z,9.59
2022-10-11T03:49:26.057Z,9.56
2022-10-11T03:50:25.990Z,9.60
2022-10-11T03:51:25.922Z,9.62
2022-10-11T03:52:25.857Z,9.53
2022-10-11T03:53:25.789Z,9.58
2022-10-11T03:54:25.725Z,9.56
2022-10-11T03:55:25.660Z,9.49
2022-10-11T03:56:25.591Z,9.40
2022-10-11T03:57:25.532Z,9.45
2022-10-11T03:58:25.462Z,9.45
2022-10-11T03:59:25.473Z,9.41
2022-10-11T04:00:25.333Z,9.37
2022-10-11T04:01:25.313Z,9.44
2022-10-11T04:02:25.199Z,9.48
2022-10-11T04:03:25.138Z,9.40
2022-10-11T04:04:25.097Z,9.42
2022-10-11T04:05:25.008Z,9.42
2022-10-11T04:06:24.937Z,9.42
2022-10-11T04:07:24.878Z,9.37
2022-10-11T04:08:24.842Z,9.41
2022-10-11T04:09:24.744Z,9.32
2022-10-11T04:10:24.680Z,9.35
2022-10-11T04:11:24.615Z,9.37
2022-10-11T04:12:24.548Z,9.38
2022-10-11T04:13:24.483Z,9.32
2022-10-11T04:14:24.414Z,9.37
2022-10-11T04:15:24.351Z,9.32
2022-10-11T04:16:24.285Z,9.27
2022-10-11T04:17:24.219Z,9.24
2022-10-11T04:18:24.156Z,9.35
2022-10-11T04:19:24.087Z,9.31
2022-10-11T04:20:24.023Z,9.32
2022-10-11T04:21:23.959Z,9.40
2022-10-11T04:22:23.890Z,9.35
2022-10-11T04:23:23.827Z,9.37
2022-10-11T04:24:23.763Z,9.41
2022-10-11T04:25:23.698Z,9.32
2022-10-11T04:26:23.633Z,9.38
2022-10-11T04:27:23.565Z,9.38
2022-10-11T04:28:23.593Z,9.37
2022-10-11T04:29:23.433Z,9.40
2022-10-11T04:30:23.371Z,9.30
2022-10-11T04:31:23.302Z,9.17
2022-10-11T04:32:23.236Z,9.30
2022-10-11T04:33:23.176Z,9.22
2022-10-11T04:34:23.103Z,9.27
2022-10-11T04:35:23.047Z,9.26
2022-10-11T04:36:22.978Z,9.15
2022-10-11T04:37:22.911Z,9.15
2022-10-11T04:38:22.847Z,9.20
2022-10-11T04:39:22.802Z,9.20
2022-10-11T04:40:22.715Z,9.23
2022-10-11T04:41:22.652Z,9.37
2022-10-11T04:42:22.592Z,9.31
2022-10-11T04:43:22.521Z,9.34
2022-10-11T04:44:22.458Z,9.24
2022-10-11T04:45:22.388Z,9.17
2022-10-11T04:46:22.318Z,9.17
2022-10-11T04:47:22.255Z,9.24
2022-10-11T04:48:22.187Z,9.30
2022-10-11T04:49:22.127Z,9.24
2022-10-11T04:50:22.059Z,9.20
2022-10-11T04:51:21.994Z,9.20
2022-10-11T04:52:25.504Z,9.20
2022-10-11T04:53:21.862Z,9.16
2022-10-11T04:54:21.794Z,9.24
2022-10-11T04:55:21.730Z,9.34
2022-10-11T04:56:21.663Z,9.27
2022-10-11T04:57:21.606Z,9.24
2022-10-11T04:58:21.533Z,9.22
2022-10-11T04:59:21.468Z,9.22
2022-10-11T05:00:21.404Z,9.16
2022-10-11T05:01:21.336Z,9.22
2022-10-11T05:02:21.382Z,9.22
2022-10-11T05:03:21.237Z,9.30
2022-10-11T05:04:21.139Z,9.27
2022-10-11T05:05:21.077Z,9.17
2022-10-11T05:06:21.008Z,9.20
2022-10-11T05:07:20.942Z,9.26
2022-10-11T05:08:20.877Z,9.27
2022-10-11T05:09:20.813Z,9.27
2022-10-11T05:10:20.749Z,9.31
2022-10-11T05:11:20.684Z,9.26
2022-10-11T05:12:20.623Z,9.34
2022-10-11T05:13:20.547Z,9.30
2022-10-11T05:14:20.486Z,9.40
2022-10-11T05:15:20.434Z,9.27
2022-10-11T05:16:20.367Z,9.22
2022-10-11T05:17:20.303Z,9.20
2022-10-11T05:18:20.242Z,9.17
2022-10-11T05:19:20.177Z,9.19
2022-10-11T05:20:20.113Z,9.16
2022-10-11T05:21:20.025Z,9.16
2022-10-11T05:22:20.001Z,9.27
2022-10-11T05:23:19.905Z,9.37
2022-10-11T05:24:19.826Z,9.31
2022-10-11T05:25:19.794Z,9.31
2022-10-11T05:26:19.695Z,9.34
2022-10-11T05:27:19.637Z,9.15
2022-10-11T05:28:19.605Z,9.30
2022-10-11T05:29:19.502Z,9.37
2022-10-11T05:30:19.429Z,9.34
2022-10-11T05:31:19.404Z,9.32
2022-10-11T05:32:19.301Z,9.35
2022-10-11T05:33:19.237Z,9.41
2022-10-11T05:34:19.166Z,9.34
2022-10-11T05:35:19.103Z,9.32
2022-10-11T05:36:19.039Z,9.35
2022-10-11T05:37:18.972Z,9.31
2022-10-11T05:38:18.921Z,9.32
2022-10-11T05:39:18.845Z,9.34
2022-10-11T05:40:18.785Z,9.41
2022-10-11T05:41:18.715Z,9.34
2022-10-11T05:42:18.665Z,9.37
2022-10-11T05:43:18.603Z,9.40
2022-10-11T05:44:18.516Z,9.38
2022-10-11T05:45:18.454Z,9.35
2022-10-11T05:46:18.400Z,9.42
2022-10-11T05:47:18.319Z,9.48
2022-10-11T05:48:18.250Z,9.42
2022-10-11T05:49:18.187Z,9.38
2022-10-11T05:50:22.030Z,9.41
2022-10-11T05:51:18.058Z,9.42
2022-10-11T05:52:17.988Z,9.42
2022-10-11T05:53:17.934Z,9.52
2022-10-11T05:54:17.859Z,9.52
2022-10-11T05:55:17.794Z,9.55
2022-10-11T05:56:17.727Z,9.52
2022-10-11T05:57:17.663Z,9.48
2022-10-11T05:58:17.596Z,9.52
2022-10-11T05:59:17.531Z,9.41
2022-10-11T06:00:17.491Z,9.44
2022-10-11T06:01:17.454Z,9.41
2022-10-11T06:02:17.339Z,9.41
2022-10-11T06:03:17.268Z,9.53
2022-10-11T06:04:17.213Z,9.62
2022-10-11T06:05:17.144Z,9.58
2022-10-11T06:06:17.073Z,9.65
2022-10-11T06:07:17.012Z,9.58
2022-10-11T06:08:16.946Z,9.56
2022-10-11T06:09:16.875Z,9.60
2022-10-11T06:10:16.817Z,9.63
2022-10-11T06:11:16.745Z,9.65
2022-10-11T06:12:16.682Z,9.73
2022-10-11T06:13:16.624Z,9.67
2022-10-11T06:14:16.582Z,9.62
2022-10-11T06:15:16.500Z,9.78
2022-10-11T06:16:16.442Z,9.81
2022-10-11T06:17:16.353Z,9.78
2022-10-11T06:18:16.287Z,9.78
2022-10-11T06:19:16.223Z,9.85
2022-10-11T06:20:16.159Z,9.77
2022-10-11T06:21:16.148Z,9.85
2022-10-11T06:22:16.028Z,9.92
2022-10-11T06:23:15.964Z,9.89
2022-10-11T06:24:15.898Z,9.85
2022-10-11T06:25:15.831Z,9.85
2022-10-11T06:26:15.767Z,9.89
2022-10-11T06:27:15.701Z,9.92
2022-10-11T06:28:15.682Z,9.96
2022-10-11T06:29:15.574Z,10.01
2022-10-11T06:30:15.517Z,9.99
2022-10-11T06:31:15.462Z,9.99
2022-10-11T06:32:15.381Z,10.02
2022-10-11T06:33:15.307Z,10.06
2022-10-11T06:34:15.249Z,10.22
2022-10-11T06:35:15.182Z,10.16
2022-10-11T06:36:15.122Z,10.22
2022-10-11T06:37:15.063Z,10.20
2022-10-11T06:38:14.988Z,10.24
2022-10-11T06:39:14.921Z,10.25
2022-10-11T06:40:14.854Z,10.35
2022-10-11T06:41:14.790Z,10.32
2022-10-11T06:42:14.724Z,10.31
2022-10-11T06:43:14.662Z,10.38
2022-10-11T06:44:14.595Z,10.43
2022-10-11T06:45:14.543Z,10.35
2022-10-11T06:46:14.471Z,10.49
2022-10-11T06:47:14.408Z,10.42
2022-10-11T06:48:14.338Z,10.49
2022-10-11T06:49:15.529Z,10.55
2022-10-11T06:50:14.205Z,10.75
2022-10-11T06:51:14.139Z,10.91
2022-10-11T06:52:14.092Z,11.03
2022-10-11T06:53:14.008Z,11.02
2022-10-11T06:54:13.947Z,11.19
2022-10-11T06:55:13.880Z,11.27
2022-10-11T06:56:13.816Z,11.56
2022-10-11T06:57:13.749Z,11.77
2022-10-11T06:58:13.691Z,11.85
2022-10-11T06:59:13.623Z,11.66
2022-10-11T07:00:13.564Z,11.67
2022-10-11T07:01:13.576Z,11.62
2022-10-11T07:02:13.436Z,11.56
2022-10-11T07:03:13.365Z,11.62
2022-10-11T07:04:13.303Z,11.90
2022-10-11T07:05:13.238Z,12.15
2022-10-11T07:06:13.177Z,12.19
2022-10-11T07:07:13.112Z,12.23
2022-10-11T07:08:13.077Z,12.37
2022-10-11T07:09:12.977Z,12.12
2022-10-11T07:10:12.925Z,12.08
2022-10-11T07:11:12.850Z,11.93
2022-10-11T07:12:12.787Z,11.94
2022-10-11T07:13:17.097Z,11.78
2022-10-11T07:14:12.659Z,11.72
2022-10-11T07:15:12.600Z,11.85
2022-10-11T07:16:12.547Z,11.77
2022-10-11T07:17:12.470Z,11.81
2022-10-11T07:18:12.519Z,11.77
2022-10-11T07:19:12.339Z,12.18
2022-10-11T07:20:12.279Z,12.21
2022-10-11T07:21:12.209Z,12.55
2022-10-11T07:22:12.163Z,12.52
2022-10-11T07:23:12.084Z,13.19
2022-10-11T07:24:12.025Z,13.66
2022-10-11T07:25:11.956Z,14.02
2022-10-11T07:26:11.897Z,14.23
2022-10-11T07:27:11.833Z,14.64
2022-10-11T07:28:11.839Z,15.00
2022-10-11T07:29:11.704Z,15.35
2022-10-11T07:30:11.643Z,15.60
2022-10-11T07:31:11.585Z,15.84
2022-10-11T07:32:11.517Z,15.55
2022-10-11T07:33:11.453Z,15.20
2022-10-11T07:34:11.411Z,14.85
2022-10-11T07:35:11.326Z,14.34
2022-10-11T07:36:11.269Z,13.84
2022-10-11T07:37:11.205Z,13.71
2022-10-11T07:38:11.143Z,13.39
2022-10-11T07:39:11.077Z,13.06
2022-10-11T07:40:11.018Z,12.88
2022-10-11T07:41:10.963Z,12.77
2022-10-11T07:42:10.913Z,12.87
2022-10-11T07:43:10.840Z,12.95
2022-10-11T07:44:10.792Z,13.03
2022-10-11T07:45:10.705Z,12.95
2022-10-11T07:46:10.920Z,12.89
2022-10-11T07:47:11.525Z,12.80
2022-10-11T07:48:10.515Z,12.87
2022-10-11T07:49:10.459Z,12.87
2022-10-11T07:50:10.389Z,12.88
2022-10-11T07:51:10.326Z,12.95
2022-10-11T07:52:10.267Z,13.10
2022-10-11T07:53:10.203Z,13.19
2022-10-11T07:54:10.141Z,13.13
2022-10-11T07:55:10.077Z,13.22
2022-10-11T07:56:10.097Z,13.27
2022-10-11T07:57:09.969Z,13.71
2022-10-11T07:58:09.895Z,13.87
2022-10-11T07:59:09.830Z,14.05
2022-10-11T08:00:09.772Z,14.11
2022-10-11T08:01:09.742Z,14.05
2022-10-11T08:02:09.659Z,14.12
2022-10-11T08:03:09.578Z,14.26
2022-10-11T08:04:09.516Z,14.30
2022-10-11T08:05:09.453Z,14.54
2022-10-11T08:06:10.055Z,14.54
2022-10-11T08:07:09.328Z,15.01
2022-10-11T08:08:09.276Z,15.59
2022-10-11T08:09:09.209Z,16.01
2022-10-11T08:10:09.159Z,16.55
2022-10-11T08:11:09.084Z,17.02
2022-10-11T08:12:09.031Z,17.54
2022-10-11T08:13:08.982Z,17.91
2022-10-11T08:14:09.005Z,18.20
2022-10-11T08:15:08.887Z,18.41
2022-10-11T08:16:08.997Z,18.75
2022-10-11T08:17:08.718Z,18.94
2022-10-11T08:18:08.659Z,19.28
2022-10-11T08:19:08.609Z,19.58
2022-10-11T08:20:08.542Z,19.67
2022-10-11T08:21:08.477Z,19.40
2022-10-11T08:22:08.419Z,19.60
2022-10-11T08:23:08.359Z,19.92
2022-10-11T08:24:08.300Z,20.31
2022-10-11T08:25:08.239Z,20.51
2022-10-11T08:26:08.780Z,20.66
2022-10-11T08:27:08.123Z,20.72
2022-10-11T08:28:08.258Z,20.57
2022-10-11T08:29:08.002Z,20.64
2022-10-11T08:30:07.988Z,20.53
2022-10-11T08:31:07.933Z,20.46
2022-10-11T08:32:07.829Z,20.26
2022-10-11T08:33:08.798Z,20.54
2022-10-11T08:34:07.713Z,20.85
2022-10-11T08:35:07.656Z,20.98
2022-10-11T08:36:08.107Z,21.63
2022-10-11T08:37:07.538Z,21.64
2022-10-11T08:38:07.522Z,22.11
2022-10-11T08:39:07.435Z,22.26
2022-10-11T08:40:07.399Z,21.70
2022-10-11T08:41:07.334Z,21.64
2022-10-11T08:42:07.248Z,21.64
2022-10-11T08:43:07.189Z,21.79
2022-10-11T08:44:07.142Z,22.02
2022-10-11T08:45:11.101Z,21.66
2022-10-11T08:46:07.545Z,21.49
2022-10-11T08:47:06.970Z,21.67
2022-10-11T08:48:06.976Z,21.66
2022-10-11T08:49:06.849Z,21.75
2022-10-11T08:50:06.788Z,22.17
2022-10-11T08:51:06.737Z,22.23
2022-10-11T08:52:06.755Z,22.42
2022-10-11T08:53:06.620Z,22.61
2022-10-11T08:54:07.955Z,22.79
2022-10-11T08:55:06.815Z,22.69
2022-10-11T08:56:06.843Z,22.66
2022-10-11T08:57:06.387Z,23.07
2022-10-11T08:58:06.338Z,23.07
2022-10-11T08:59:06.280Z,22.99
2022-10-11T09:00:06.223Z,23.31
2022-10-11T09:01:06.211Z,23.11
2022-10-11T09:02:06.107Z,22.94
2022-10-11T09:03:09.062Z,22.86
2022-10-11T09:04:05.996Z,22.75
2022-10-11T09:05:05.935Z,22.96
2022-10-11T09:06:06.177Z,23.32
2022-10-11T09:07:05.878Z,23.29
2022-10-11T09:08:05.771Z,23.77
2022-10-11T09:09:05.712Z,24.08
2022-10-11T09:10:05.655Z,23.69
2022-10-11T09:11:05.602Z,23.67
2022-10-11T09:12:05.546Z,23.92
2022-10-11T09:13:05.485Z,24.04
2022-10-11T09:14:05.439Z,23.93
2022-10-11T09:15:05.376Z,23.94
2022-10-11T09:16:05.590Z,24.11
2022-10-11T09:17:05.263Z,23.94
2022-10-11T09:18:05.220Z,23.62
2022-10-11T09:19:05.153Z,23.44
2022-10-11T09:20:05.100Z,23.54
2022-10-11T09:21:05.041Z,23.64
2022-10-11T09:22:04.983Z,23.60
2022-10-11T09:23:04.927Z,23.59
2022-10-11T09:24:04.873Z,23.72
2022-10-11T09:25:04.820Z,23.71
2022-10-11T09:26:05.121Z,23.94
2022-10-11T09:27:04.712Z,23.78
2022-10-11T09:28:04.655Z,23.81
2022-10-11T09:29:04.694Z,23.86
2022-10-11T09:30:04.560Z,24.06
2022-10-11T09:31:04.542Z,24.23
2022-10-11T09:32:04.476Z,24.48
2022-10-11T09:33:04.374Z,24.34
2022-10-11T09:34:04.320Z,24.33
2022-10-11T09:35:04.321Z,24.16
2022-10-11T09:36:04.631Z,24.16
2022-10-11T09:37:04.155Z,23.96
2022-10-11T09:38:04.100Z,23.72
2022-10-11T09:39:06.693Z,23.92
2022-10-11T09:40:03.993Z,24.16
2022-10-11T09:41:03.940Z,24.37
2022-10-11T09:42:03.881Z,24.52
2022-10-11T09:43:03.830Z,24.48
2022-10-11T09:44:03.780Z,24.84
2022-10-11T09:45:03.717Z,24.41
2022-10-11T09:46:04.107Z,24.42
2022-10-11T09:47:03.613Z,24.42
2022-10-11T09:48:03.635Z,24.39
2022-10-11T09:49:03.496Z,24.46
2022-10-11T09:50:03.543Z,24.48
2022-10-11T09:51:04.874Z,24.67
2022-10-11T09:52:03.333Z,24.99
2022-10-11T09:53:03.279Z,25.16
2022-10-11T09:54:03.257Z,25.17
2022-10-11T09:55:03.180Z,25.16
2022-10-11T09:56:03.523Z,24.68
2022-10-11T09:57:03.057Z,24.41
2022-10-11T09:58:03.005Z,24.44
2022-10-11T09:59:02.950Z,24.55
2022-10-11T10:00:02.898Z,24.45
2022-10-11T10:01:07.613Z,24.15
2022-10-11T10:02:02.857Z,24.29
2022-10-11T10:03:02.735Z,24.08
2022-10-11T10:04:02.677Z,24.05
2022-10-11T10:05:02.632Z,24.29
2022-10-11T10:06:03.002Z,24.27
2022-10-11T10:07:02.512Z,24.49
2022-10-11T10:08:04.821Z,24.39
2022-10-11T10:09:02.423Z,24.46
2022-10-11T10:10:02.376Z,24.18
2022-10-11T10:11:02.298Z,23.87
2022-10-11T10:12:02.241Z,24.11
2022-10-11T10:13:02.188Z,23.89
2022-10-11T10:14:02.132Z,23.81
2022-10-11T10:15:02.093Z,23.75
2022-10-11T10:16:02.173Z,24.05
2022-10-11T10:17:01.967Z,24.26
2022-10-11T10:18:01.924Z,24.24
2022-10-11T10:19:01.863Z,24.66
2022-10-11T10:20:01.804Z,24.36
2022-10-11T10:21:01.752Z,23.90
2022-10-11T10:22:01.695Z,23.64
2022-10-11T10:23:01.647Z,24.11
2022-10-11T10:24:01.583Z,23.59
2022-10-11T10:25:01.529Z,23.14
2022-10-11T10:26:01.481Z,22.57
2022-10-11T10:27:01.424Z,21.66
2022-10-11T10:28:01.380Z,21.55
2022-10-11T10:29:01.353Z,21.56
2022-10-11T10:30:01.256Z,21.73
2022-10-11T10:31:01.202Z,21.93
2022-10-11T10:32:13.805Z,22.54
2022-10-11T10:33:01.105Z,22.30
2022-10-11T10:34:01.085Z,22.51
2022-10-11T10:35:01.004Z,22.59
2022-10-11T10:36:00.917Z,21.51
2022-10-11T10:37:00.878Z,20.87
2022-10-11T10:38:00.809Z,21.06
2022-10-11T10:39:00.755Z,21.51
2022-10-11T10:40:00.698Z,21.98
2022-10-11T10:41:00.643Z,21.90
2022-10-11T10:42:00.585Z,21.63
2022-10-11T10:43:00.529Z,20.50
2022-10-11T10:44:00.475Z,20.12
2022-10-11T10:45:00.420Z,19.95
2022-10-11T10:46:00.366Z,20.16
2022-10-11T10:47:00.311Z,20.50
2022-10-11T10:48:00.306Z,20.73
2022-10-11T10:50:00.202Z,20.90
2022-10-11T10:51:00.098Z,21.27
2022-10-11T10:52:00.028Z,21.56
2022-10-11T10:52:59.967Z,21.86
2022-10-11T10:53:59.909Z,22.05
2022-10-11T10:54:59.862Z,22.57
2022-10-11T10:55:59.796Z,22.46
2022-10-11T10:56:59.742Z,22.35
2022-10-11T10:57:59.687Z,22.41
2022-10-11T10:58:59.629Z,22.21
2022-10-11T10:59:59.570Z,22.54
2022-10-11T11:00:59.521Z,22.11
2022-10-11T11:02:15.769Z,21.55
2022-10-11T11:02:59.446Z,21.00
2022-10-11T11:03:59.350Z,20.76
2022-10-11T11:05:59.232Z,21.30
2022-10-11T11:06:59.214Z,21.09
2022-10-11T11:07:59.164Z,20.63
2022-10-11T11:08:59.062Z,20.00
2022-10-11T11:09:59.006Z,19.85
2022-10-11T11:10:58.950Z,19.75
2022-10-11T11:11:58.895Z,19.38
2022-10-11T11:12:58.836Z,18.99
2022-10-11T11:13:58.778Z,18.60
2022-10-11T11:14:58.721Z,18.36
2022-10-11T11:15:58.664Z,18.68
2022-10-11T11:16:58.608Z,18.66
2022-10-11T11:17:58.547Z,18.89
2022-10-11T11:18:58.496Z,19.02
2022-10-11T11:19:58.434Z,18.87
2022-10-11T11:20:58.382Z,18.94
2022-10-11T11:21:58.331Z,18.96
2022-10-11T11:22:58.264Z,18.90
2022-10-11T11:23:58.217Z,18.93
2022-10-11T11:24:58.142Z,18.82
2022-10-11T11:25:58.085Z,18.87
2022-10-11T11:26:58.134Z,18.78
2022-10-11T11:27:58.148Z,18.75
2022-10-11T11:28:58.403Z,18.65
2022-10-11T11:29:57.873Z,18.53
2022-10-11T11:30:57.834Z,18.56
2022-10-11T11:31:57.735Z,18.34
2022-10-11T11:32:57.698Z,18.36
2022-10-11T11:33:57.629Z,18.41
2022-10-11T11:34:57.557Z,18.34
2022-10-11T11:35:57.514Z,18.19
2022-10-11T11:36:57.463Z,18.11
2022-10-11T11:38:02.506Z,17.95
2022-10-11T11:38:57.319Z,18.01
2022-10-11T11:39:57.298Z,17.87
2022-10-11T11:40:57.198Z,17.96
2022-10-11T11:41:57.139Z,17.84
2022-10-11T11:42:57.108Z,17.77
2022-10-11T11:43:57.022Z,17.63
2022-10-11T11:44:56.971Z,17.54
2022-10-11T11:45:56.903Z,17.51
2022-10-11T11:46:56.855Z,17.39
2022-10-11T11:47:56.797Z,17.22
2022-10-11T11:48:56.730Z,17.27
2022-10-11T11:49:56.668Z,17.22
2022-10-11T11:50:56.613Z,17.21
2022-10-11T11:51:56.549Z,17.24
2022-10-11T11:52:56.484Z,17.24
2022-10-11T11:53:56.443Z,17.22
2022-10-11T11:55:00.199Z,17.22
2022-10-11T11:55:56.312Z,17.21
2022-10-11T11:56:56.244Z,17.21
2022-10-11T11:57:56.213Z,17.32
2022-10-11T11:58:56.123Z,17.30
2022-10-11T11:59:56.062Z,17.33
2022-10-11T12:00:56.007Z,17.21
2022-10-11T12:01:55.962Z,17.10
2022-10-11T12:02:55.893Z,17.15
2022-10-11T12:03:55.851Z,17.18
2022-10-11T12:04:55.786Z,17.14
2022-10-11T12:05:55.747Z,17.17
2022-10-11T12:07:15.038Z,17.15
2022-10-11T12:07:55.670Z,17.12
2022-10-11T12:08:55.519Z,17.00
2022-10-11T12:09:55.456Z,16.95
2022-10-11T12:10:55.403Z,16.90
2022-10-11T12:11:55.342Z,16.87
2022-10-11T12:12:55.276Z,16.82
2022-10-11T12:13:55.217Z,16.70
2022-10-11T12:14:55.157Z,16.72
2022-10-11T12:15:55.094Z,16.75
2022-10-11T12:16:55.034Z,16.66
2022-10-11T12:17:54.968Z,16.69
2022-10-11T12:18:54.911Z,16.63
2022-10-11T12:19:54.850Z,16.63
2022-10-11T12:20:54.868Z,16.75
2022-10-11T12:21:54.959Z,16.69
2022-10-11T12:22:54.705Z,16.65
2022-10-11T12:23:54.606Z,16.72
2022-10-11T12:24:54.547Z,16.67
2022-10-11T12:25:54.486Z,16.80
2022-10-11T12:26:54.425Z,16.81
2022-10-11T12:27:54.376Z,16.82
2022-10-11T12:28:54.384Z,16.99
2022-10-11T12:29:54.255Z,17.12
2022-10-11T12:30:54.187Z,17.06
2022-10-11T12:31:54.120Z,17.12
2022-10-11T12:32:54.062Z,17.17
2022-10-11T12:33:53.998Z,17.30
2022-10-11T12:34:53.938Z,17.25
2022-10-11T12:35:53.905Z,17.40
2022-10-11T12:36:53.825Z,17.38
2022-10-11T12:37:53.750Z,17.39
2022-10-11T12:38:53.694Z,17.45
2022-10-11T12:39:53.633Z,17.43
2022-10-11T12:40:53.578Z,17.46
2022-10-11T12:41:53.544Z,17.57
2022-10-11T12:42:53.446Z,17.73
2022-10-11T12:43:53.401Z,17.89
2022-10-11T12:44:53.385Z,17.83
2022-10-11T12:45:53.265Z,17.87
2022-10-11T12:46:53.212Z,17.92
2022-10-11T12:47:53.164Z,17.98
2022-10-11T12:48:53.083Z,18.13
2022-10-11T12:49:53.024Z,18.10
2022-10-11T12:50:52.964Z,18.19
2022-10-11T12:51:52.897Z,18.13
2022-10-11T12:52:52.838Z,18.23
2022-10-11T12:54:14.444Z,18.17
2022-10-11T12:54:52.722Z,18.16
2022-10-11T12:55:52.661Z,18.10
2022-10-11T12:56:52.595Z,18.07
2022-10-11T12:57:52.544Z,18.04
2022-10-11T12:58:52.491Z,18.01
2022-10-11T12:59:52.417Z,17.80
2022-10-11T13:00:52.373Z,17.83
2022-10-11T13:01:52.293Z,17.77